Time;durP1;ratioP1;P1;durP2;ratioP2;P2;SDS_P1;SDS_P2;PMS_P1;PMS_P2;Temp;Humidity;BMP_temperature;BMP_pressure;BME280_temperature;BME280_humidity;BME280_pressure;Samples;Min_cycle;Max_cycle;Signal;HPM_P1;HPM_P2
2021/01/10 00:00:08;;;;;;;69.95;59.22;;;17.30;99.90;;;;;;5075939;28;20108;-22
2021/01/10 00:02:33;;;;;;;67.45;57.33;;;17.30;99.90;;;;;;5075385;28;20052;-23
2021/01/10 00:05:00;;;;;;;68.90;57.53;;;17.20;99.90;;;;;;5075843;28;20426;-21
2021/01/10 00:07:26;;;;;;;66.55;55.95;;;17.20;99.90;;;;;;5075755;28;20028;-22
2021/01/10 00:09:52;;;;;;;67.75;55.88;;;17.20;99.90;;;;;;5075797;28;20482;-22
2021/01/10 00:12:25;;;;;;;68.03;56.63;;;17.20;99.90;;;;;;5075586;28;20021;-22
2021/01/10 00:14:52;;;;;;;68.88;57.72;;;17.10;99.90;;;;;;5075523;28;20016;-22
2021/01/10 00:17:18;;;;;;;67.85;56.03;;;17.10;99.90;;;;;;5075587;28;20047;-22
2021/01/10 00:19:45;;;;;;;65.10;53.80;;;17.10;99.90;;;;;;5075429;28;20033;-22
2021/01/10 00:22:16;;;;;;;65.43;54.97;;;17.10;99.90;;;;;;5075564;28;20448;-22
2021/01/10 00:24:41;;;;;;;61.78;52.05;;;17.10;99.90;;;;;;5075482;28;20016;-23
2021/01/10 00:27:12;;;;;;;61.30;52.03;;;17.10;99.90;;;;;;5075265;28;20863;-23
2021/01/10 00:29:44;;;;;;;63.65;52.47;;;17.00;99.90;;;;;;5075299;28;20056;-23
2021/01/10 00:32:10;;;;;;;59.20;49.58;;;17.00;99.90;;;;;;5075409;28;20379;-23
2021/01/10 00:34:36;;;;;;;58.95;50.53;;;17.00;99.90;;;;;;5075256;28;20017;-23
2021/01/10 00:37:09;;;;;;;61.85;49.63;;;17.00;99.90;;;;;;5075066;28;20070;-23
2021/01/10 00:39:34;;;;;;;57.55;47.45;;;17.00;99.90;;;;;;5075312;28;20021;-23
2021/01/10 00:42:10;;;;;;;54.20;45.95;;;17.00;99.90;;;;;;5075726;28;20047;-22
2021/01/10 00:44:36;;;;;;;57.95;48.13;;;17.00;99.90;;;;;;5074915;28;20017;-23
2021/01/10 00:47:06;;;;;;;56.83;46.30;;;17.00;99.90;;;;;;5075182;28;20027;-22
2021/01/10 00:49:32;;;;;;;54.85;46.67;;;16.90;99.90;;;;;;5074871;28;20725;-23
2021/01/10 00:51:58;;;;;;;56.90;46.28;;;16.90;99.90;;;;;;5074950;28;20040;-22
2021/01/10 00:54:24;;;;;;;55.55;45.17;;;16.80;99.90;;;;;;5075189;28;20043;-22
2021/01/10 00:56:50;;;;;;;50.97;42.92;;;16.80;99.90;;;;;;5074908;28;20518;-23
2021/01/10 00:59:17;;;;;;;54.17;45.67;;;16.80;99.90;;;;;;5074629;28;20027;-23
2021/01/10 01:01:43;;;;;;;52.40;43.55;;;16.80;99.90;;;;;;5074681;28;20401;-23
2021/01/10 01:04:08;;;;;;;53.72;45.00;;;16.80;99.90;;;;;;5074655;28;20103;-23
2021/01/10 01:06:34;;;;;;;52.00;41.67;;;16.80;99.90;;;;;;5075172;28;20063;-22
2021/01/10 01:09:00;;;;;;;50.63;42.63;;;16.80;99.90;;;;;;5074697;28;20483;-23
2021/01/10 01:11:35;;;;;;;55.20;44.88;;;16.70;99.90;;;;;;5074370;28;20074;-23
2021/01/10 01:14:02;;;;;;;53.47;42.65;;;16.70;99.90;;;;;;5073626;28;20066;-23
2021/01/10 01:16:28;;;;;;;55.35;44.95;;;16.80;99.90;;;;;;5074513;28;20099;-22
2021/01/10 01:18:54;;;;;;;49.85;43.10;;;16.70;99.90;;;;;;5072665;28;20029;-23
2021/01/10 01:21:21;;;;;;;48.60;41.80;;;16.70;99.90;;;;;;5074434;28;20046;-22
2021/01/10 01:23:50;;;;;;;51.00;41.70;;;16.70;99.90;;;;;;5074299;28;20020;-23
2021/01/10 01:26:20;;;;;;;49.55;40.58;;;16.70;99.90;;;;;;5074583;28;20025;-23
2021/01/10 01:28:47;;;;;;;48.22;40.13;;;16.70;99.90;;;;;;5074432;28;20020;-23
2021/01/10 01:31:23;;;;;;;49.28;40.03;;;16.70;99.90;;;;;;5074018;28;20048;-22
2021/01/10 01:33:50;;;;;;;46.17;40.28;;;16.70;99.90;;;;;;5074233;28;20471;-23
2021/01/10 01:36:24;;;;;;;46.08;38.90;;;16.70;99.90;;;;;;5074017;28;20027;-22
2021/01/10 01:38:55;;;;;;;47.80;38.75;;;16.70;99.90;;;;;;5074253;28;20048;-22
2021/01/10 01:41:21;;;;;;;48.38;39.47;;;16.60;99.90;;;;;;5074234;28;20051;-22
2021/01/10 01:43:48;;;;;;;48.45;40.10;;;16.60;99.90;;;;;;5074010;28;20107;-22
2021/01/10 01:46:29;;;;;;;47.50;39.42;;;16.60;99.90;;;;;;5073920;28;20052;-23
2021/01/10 01:48:59;;;;;;;44.50;36.65;;;16.60;99.90;;;;;;5073929;28;20058;-22
2021/01/10 01:51:28;;;;;;;46.20;38.35;;;16.60;99.90;;;;;;5073907;28;20362;-22
2021/01/10 01:53:54;;;;;;;46.13;39.03;;;16.60;99.90;;;;;;5072471;28;20367;-23
2021/01/10 01:56:20;;;;;;;44.60;37.95;;;16.60;99.90;;;;;;5073694;28;20540;-23
2021/01/10 01:59:07;;;;;;;45.00;38.28;;;16.60;99.90;;;;;;5073660;28;20025;-23
2021/01/10 02:01:37;;;;;;;47.20;38.97;;;16.60;99.90;;;;;;5073791;28;20024;-23
2021/01/10 02:04:10;;;;;;;43.67;36.03;;;16.70;99.90;;;;;;5054440;28;20056;-23
2021/01/10 02:06:48;;;;;;;43.30;36.28;;;16.70;99.90;;;;;;5053525;28;20053;-23
2021/01/10 02:09:15;;;;;;;42.72;35.72;;;16.60;99.90;;;;;;5053608;28;20029;-23
2021/01/10 02:11:47;;;;;;;46.47;39.13;;;16.60;99.90;;;;;;5053831;28;20033;-22
2021/01/10 02:14:20;;;;;;;43.35;35.53;;;16.60;99.90;;;;;;5053493;28;20387;-22
2021/01/10 02:16:47;;;;;;;42.88;36.08;;;16.60;99.90;;;;;;5053288;28;20025;-22
2021/01/10 02:19:27;;;;;;;43.60;35.35;;;16.60;99.90;;;;;;5053316;28;20035;-22
2021/01/10 02:21:59;;;;;;;42.90;34.67;;;16.60;99.90;;;;;;5052052;28;20083;-23
2021/01/10 02:24:25;;;;;;;42.20;34.00;;;16.50;99.90;;;;;;5053312;28;20021;-22
2021/01/10 02:26:51;;;;;;;40.22;32.58;;;16.50;99.90;;;;;;5053162;28;20024;-23
2021/01/10 02:29:18;;;;;;;39.92;33.10;;;16.50;99.90;;;;;;5053362;28;20018;-25
2021/01/10 02:31:47;;;;;;;39.08;32.95;;;16.60;99.90;;;;;;5053169;28;20461;-23
2021/01/10 02:34:16;;;;;;;37.17;32.25;;;16.60;99.90;;;;;;5053219;28;20039;-22
2021/01/10 02:37:05;;;;;;;37.13;31.58;;;16.50;99.90;;;;;;5053105;28;20070;-23
2021/01/10 02:39:46;;;;;;;34.90;30.58;;;16.50;99.90;;;;;;5053180;28;20021;-22
2021/01/10 02:42:21;;;;;;;37.13;31.35;;;16.50;99.90;;;;;;5053319;28;20421;-22
2021/01/10 02:45:13;;;;;;;38.22;31.23;;;16.50;99.90;;;;;;5053140;28;20025;-23
2021/01/10 02:47:39;;;;;;;33.88;28.88;;;16.50;99.90;;;;;;5053051;28;20025;-23
2021/01/10 02:50:07;;;;;;;33.00;28.80;;;16.50;99.90;;;;;;5053041;28;20470;-22
2021/01/10 02:52:33;;;;;;;33.80;28.73;;;16.50;99.90;;;;;;5053073;28;20025;-23
2021/01/10 02:54:59;;;;;;;31.70;27.08;;;16.50;99.90;;;;;;5051832;28;20163;-22
2021/01/10 02:57:36;;;;;;;29.17;25.98;;;16.40;99.90;;;;;;5052975;28;20025;-22
2021/01/10 03:00:06;;;;;;;34.75;28.13;;;16.40;99.90;;;;;;5052908;28;20028;-23
2021/01/10 03:02:34;;;;;;;29.77;25.70;;;16.40;99.90;;;;;;5051754;28;20025;-23
2021/01/10 03:05:01;;;;;;;32.53;26.13;;;16.40;99.90;;;;;;5052948;28;20036;-22
2021/01/10 03:07:28;;;;;;;33.15;26.50;;;16.40;99.90;;;;;;5068651;28;20033;-22
2021/01/10 03:09:55;;;;;;;31.40;25.20;;;16.40;99.90;;;;;;5073005;28;20463;-22
2021/01/10 03:12:27;;;;;;;30.75;25.65;;;16.40;99.90;;;;;;5072887;28;20474;-23
2021/01/10 03:14:54;;;;;;;30.73;25.77;;;16.40;99.90;;;;;;5072910;28;20029;-23
2021/01/10 03:17:42;;;;;;;28.67;24.15;;;16.40;99.90;;;;;;5072836;28;20104;-22
2021/01/10 03:20:13;;;;;;;29.70;25.00;;;16.30;99.90;;;;;;5072860;28;20503;-22
2021/01/10 03:22:40;;;;;;;29.83;24.88;;;16.40;99.90;;;;;;5072852;28;20512;-23
2021/01/10 03:25:07;;;;;;;30.23;23.92;;;16.40;99.90;;;;;;5073286;28;20082;-23
2021/01/10 03:27:34;;;;;;;27.80;23.80;;;16.30;99.90;;;;;;5073000;28;20051;-23
2021/01/10 03:30:07;;;;;;;28.47;23.77;;;16.30;99.90;;;;;;5072758;28;20079;-22
2021/01/10 03:32:34;;;;;;;26.70;23.77;;;16.30;99.90;;;;;;5072883;28;20020;-22
2021/01/10 03:34:59;;;;;;;27.27;22.80;;;16.30;99.90;;;;;;5072677;28;20559;-22
2021/01/10 03:37:25;;;;;;;26.48;22.38;;;16.30;99.90;;;;;;5073724;28;20059;-23
2021/01/10 03:39:52;;;;;;;26.10;21.98;;;16.30;99.90;;;;;;5076426;28;20386;-23
2021/01/10 03:42:18;;;;;;;25.17;20.95;;;16.30;99.90;;;;;;5075081;28;20117;-22
2021/01/10 03:44:43;;;;;;;26.80;21.80;;;16.20;99.90;;;;;;5076235;28;20103;-22
2021/01/10 03:47:09;;;;;;;25.33;21.73;;;16.20;99.90;;;;;;5076440;28;20116;-23
2021/01/10 03:49:35;;;;;;;26.13;21.35;;;16.30;99.90;;;;;;5075990;28;20421;-23
2021/01/10 03:52:01;;;;;;;25.90;21.77;;;16.20;99.90;;;;;;5076361;28;20012;-23
2021/01/10 03:54:26;;;;;;;24.75;20.50;;;16.20;99.90;;;;;;5076261;28;20024;-23
2021/01/10 03:56:52;;;;;;;23.52;20.70;;;16.20;99.90;;;;;;5076812;28;20024;-23
2021/01/10 03:59:18;;;;;;;23.42;20.00;;;16.20;99.90;;;;;;5075906;28;20417;-23
2021/01/10 04:01:44;;;;;;;23.58;20.25;;;16.20;99.90;;;;;;5075859;28;20111;-22
2021/01/10 04:04:10;;;;;;;26.45;21.00;;;16.20;99.90;;;;;;5075939;28;20031;-22
2021/01/10 04:06:35;;;;;;;22.50;19.85;;;16.20;99.90;;;;;;5075878;28;20029;-23
2021/01/10 04:09:01;;;;;;;21.83;19.38;;;16.20;99.90;;;;;;5075985;28;20099;-22
2021/01/10 04:11:27;;;;;;;21.77;19.13;;;16.10;99.90;;;;;;5075621;28;20104;-23
2021/01/10 04:13:53;;;;;;;23.27;20.05;;;16.20;99.90;;;;;;5075982;28;20021;-22
2021/01/10 04:16:19;;;;;;;22.38;19.13;;;16.20;99.90;;;;;;5075810;28;20024;-23
2021/01/10 04:18:44;;;;;;;21.92;18.55;;;16.20;99.90;;;;;;5075573;28;20023;-22
2021/01/10 04:21:10;;;;;;;22.40;18.63;;;16.10;99.90;;;;;;5075832;28;20048;-23
2021/01/10 04:23:36;;;;;;;23.83;19.73;;;16.10;99.90;;;;;;5075472;28;20029;-23
2021/01/10 04:26:03;;;;;;;21.08;18.52;;;16.10;99.90;;;;;;5075487;28;20074;-23
2021/01/10 04:28:28;;;;;;;20.50;17.83;;;16.10;99.90;;;;;;5075572;28;20044;-22
2021/01/10 04:30:55;;;;;;;22.05;17.85;;;16.10;99.90;;;;;;5075197;28;20482;-23
2021/01/10 04:33:22;;;;;;;20.63;17.53;;;16.10;99.90;;;;;;5075334;28;20056;-22
2021/01/10 04:35:48;;;;;;;20.33;16.73;;;16.10;99.90;;;;;;5075149;28;20017;-24
2021/01/10 04:38:15;;;;;;;21.35;16.83;;;16.10;99.90;;;;;;5075010;28;20027;-22
2021/01/10 04:40:42;;;;;;;20.87;17.47;;;16.00;99.90;;;;;;5075230;28;20066;-23
2021/01/10 04:43:08;;;;;;;19.25;16.85;;;16.00;99.90;;;;;;5074786;28;20078;-23
2021/01/10 04:45:34;;;;;;;19.35;16.52;;;16.00;99.90;;;;;;5074424;28;20029;-23
2021/01/10 04:48:01;;;;;;;19.83;16.83;;;16.00;99.90;;;;;;5074737;28;20089;-23
2021/01/10 04:50:30;;;;;;;19.27;16.60;;;16.00;99.90;;;;;;5074206;28;20458;-23
2021/01/10 04:53:00;;;;;;;19.08;16.17;;;16.00;99.90;;;;;;5074606;28;20100;-23
2021/01/10 04:55:30;;;;;;;18.63;15.63;;;16.00;99.90;;;;;;5072649;28;20470;-22
2021/01/10 04:58:05;;;;;;;17.95;15.40;;;16.00;99.90;;;;;;5074463;28;20040;-22
2021/01/10 05:00:32;;;;;;;21.08;16.85;;;16.00;99.90;;;;;;5073780;28;20085;-23
2021/01/10 05:03:16;;;;;;;18.25;15.73;;;15.90;99.90;;;;;;5073738;28;20020;-23
2021/01/10 05:05:42;;;;;;;17.38;15.20;;;16.00;99.90;;;;;;5073687;28;20158;-23
2021/01/10 05:08:11;;;;;;;18.17;14.88;;;16.00;99.90;;;;;;5074009;28;20470;-22
2021/01/10 05:10:39;;;;;;;18.52;15.18;;;16.00;99.90;;;;;;5072728;28;20024;-22
2021/01/10 05:13:06;;;;;;;17.60;14.65;;;15.90;99.90;;;;;;5073995;28;20028;-22
2021/01/10 05:15:32;;;;;;;18.60;14.63;;;15.90;99.90;;;;;;5074151;28;20028;-22
2021/01/10 05:17:59;;;;;;;16.38;13.43;;;15.90;99.90;;;;;;5074075;28;20020;-22
2021/01/10 05:20:34;;;;;;;16.55;13.90;;;15.90;99.90;;;;;;5074102;28;20466;-23
2021/01/10 05:23:01;;;;;;;15.25;13.65;;;15.90;99.90;;;;;;5074136;28;20021;-23
2021/01/10 05:25:27;;;;;;;15.80;13.55;;;15.90;99.90;;;;;;5073977;28;20078;-23
2021/01/10 05:27:56;;;;;;;15.68;13.52;;;15.90;99.90;;;;;;5074024;28;20466;-23
2021/01/10 05:30:33;;;;;;;17.98;13.50;;;15.90;99.90;;;;;;5073491;28;20094;-23
2021/01/10 05:33:03;;;;;;;18.27;14.77;;;15.90;99.90;;;;;;5073626;28;20028;-23
2021/01/10 05:35:29;;;;;;;16.58;13.20;;;15.90;99.90;;;;;;5073820;28;20039;-23
2021/01/10 05:37:56;;;;;;;17.17;14.05;;;15.90;99.90;;;;;;5073916;28;20104;-23
2021/01/10 05:40:29;;;;;;;18.02;14.10;;;15.90;99.90;;;;;;5074307;28;20024;-23
2021/01/10 05:42:57;;;;;;;14.13;12.50;;;15.90;99.90;;;;;;5073513;28;20029;-23
2021/01/10 05:45:36;;;;;;;14.57;12.65;;;15.90;99.90;;;;;;5073573;28;20031;-23
2021/01/10 05:48:13;;;;;;;15.55;12.98;;;15.80;99.90;;;;;;5073827;28;20391;-23
2021/01/10 05:50:46;;;;;;;14.15;12.65;;;15.90;99.90;;;;;;5073636;28;20046;-23
2021/01/10 05:53:23;;;;;;;13.80;11.38;;;15.80;99.90;;;;;;5073744;28;20029;-23
2021/01/10 05:55:53;;;;;;;13.57;11.57;;;15.80;99.90;;;;;;5073772;28;20025;-23
2021/01/10 05:58:19;;;;;;;13.38;11.60;;;15.80;99.90;;;;;;5073589;28;20486;-23
2021/01/10 06:00:46;;;;;;;13.65;12.02;;;15.80;99.90;;;;;;5073088;28;20033;-23
2021/01/10 06:03:12;;;;;;;14.20;11.93;;;15.80;99.90;;;;;;5073610;28;20055;-23
2021/01/10 06:05:56;;;;;;;15.80;12.05;;;15.80;99.90;;;;;;5073805;28;20032;-23
2021/01/10 06:08:30;;;;;;;12.98;11.43;;;15.80;99.90;;;;;;5073522;28;20048;-23
2021/01/10 06:11:22;;;;;;;13.05;11.55;;;15.80;99.90;;;;;;5073581;28;20024;-23
2021/01/10 06:13:55;;;;;;;15.60;11.88;;;15.80;99.90;;;;;;5073565;28;20070;-22
2021/01/10 06:16:25;;;;;;;13.15;11.02;;;15.80;99.90;;;;;;5073779;28;20363;-22
2021/01/10 06:19:06;;;;;;;13.55;11.05;;;15.80;99.90;;;;;;5073544;28;20044;-22
2021/01/10 06:21:32;;;;;;;13.68;10.80;;;15.80;99.90;;;;;;5073645;28;20028;-22
2021/01/10 06:24:01;;;;;;;12.20;10.88;;;15.80;99.90;;;;;;5073338;28;20025;-22
2021/01/10 06:26:31;;;;;;;12.65;10.93;;;15.80;99.90;;;;;;5073237;28;20021;-22
2021/01/10 06:29:06;;;;;;;13.27;10.70;;;15.70;99.90;;;;;;5073363;28;20031;-23
2021/01/10 06:31:34;;;;;;;14.35;10.55;;;15.70;99.90;;;;;;5073041;28;20094;-23
2021/01/10 06:34:08;;;;;;;12.15;10.40;;;15.80;99.90;;;;;;5072106;28;20520;-22
2021/01/10 06:36:41;;;;;;;14.07;11.55;;;15.80;99.90;;;;;;5073333;28;20028;-22
2021/01/10 06:39:18;;;;;;;13.13;11.02;;;15.80;99.90;;;;;;5072164;28;20055;-23
2021/01/10 06:41:53;;;;;;;13.60;10.55;;;15.80;99.90;;;;;;5072182;28;20107;-22
2021/01/10 06:44:20;;;;;;;13.20;10.45;;;15.80;99.90;;;;;;5073271;28;20056;-22
2021/01/10 06:46:54;;;;;;;11.23;9.85;;;15.80;99.90;;;;;;5073437;28;20024;-22
2021/01/10 06:49:21;;;;;;;12.90;10.30;;;15.70;99.90;;;;;;5073345;28;20081;-23
2021/01/10 06:51:49;;;;;;;12.50;9.77;;;15.80;99.90;;;;;;5073056;28;20028;-22
2021/01/10 06:54:16;;;;;;;12.00;9.57;;;15.70;99.90;;;;;;5073174;28;20417;-22
2021/01/10 06:56:52;;;;;;;11.70;9.98;;;15.70;99.90;;;;;;5073098;28;20077;-22
2021/01/10 06:59:25;;;;;;;10.60;9.15;;;15.70;99.90;;;;;;5071844;28;20024;-23
2021/01/10 07:01:53;;;;;;;11.20;10.02;;;15.70;99.90;;;;;;5072243;28;20070;-22
2021/01/10 07:04:57;;;;;;;10.55;9.10;;;15.80;99.90;;;;;;5072316;28;20158;-22
2021/01/10 07:07:40;;;;;;;10.55;8.70;;;15.70;99.90;;;;;;5072820;28;20118;-23
2021/01/10 07:10:08;;;;;;;10.90;9.05;;;15.80;99.90;;;;;;5078213;28;20040;-26
2021/01/10 07:12:35;;;;;;;14.10;9.65;;;15.80;99.90;;;;;;5073960;28;20100;-26
2021/01/10 07:15:19;;;;;;;10.45;8.70;;;15.70;99.90;;;;;;5076541;28;20016;-26
2021/01/10 07:18:06;;;;;;;9.50;7.95;;;15.70;99.90;;;;;;5076961;28;20026;-26
2021/01/10 07:20:34;;;;;;;10.23;8.20;;;15.80;99.90;;;;;;5076124;28;20102;-26
2021/01/10 07:23:24;;;;;;;9.90;8.32;;;15.80;99.90;;;;;;5076680;28;20021;-26
2021/01/10 07:25:50;;;;;;;9.82;7.55;;;15.80;99.90;;;;;;5076421;28;20475;-27
2021/01/10 07:28:32;;;;;;;8.55;7.60;;;15.80;99.90;;;;;;5076243;28;20043;-26
2021/01/10 07:31:09;;;;;;;10.13;8.07;;;15.80;99.90;;;;;;5076288;28;20472;-27
2021/01/10 07:33:35;;;;;;;8.32;6.75;;;15.80;99.90;;;;;;5076219;28;20027;-27
2021/01/10 07:36:01;;;;;;;9.38;7.20;;;15.70;99.90;;;;;;5076471;28;20052;-26
2021/01/10 07:38:27;;;;;;;9.02;7.18;;;15.80;99.90;;;;;;5074915;28;20467;-27
2021/01/10 07:40:53;;;;;;;8.00;6.75;;;15.70;99.90;;;;;;5074393;28;20134;-26
2021/01/10 07:43:19;;;;;;;7.70;6.25;;;15.70;99.90;;;;;;5067048;28;20037;-26
2021/01/10 07:45:45;;;;;;;7.03;6.15;;;15.70;99.90;;;;;;5069428;28;20025;-26
2021/01/10 07:48:40;;;;;;;10.20;8.68;;;15.70;99.90;;;;;;5076197;28;20039;-27
2021/01/10 07:51:16;;;;;;;25.80;20.02;;;15.70;99.90;;;;;;5053638;28;20048;-27
2021/01/10 07:53:48;;;;;;;25.85;21.92;;;15.70;99.90;;;;;;5053890;28;20435;-26
2021/01/10 07:56:15;;;;;;;18.23;15.68;;;15.80;99.90;;;;;;5053366;28;20033;-27
2021/01/10 07:58:41;;;;;;;25.00;20.08;;;15.90;99.90;;;;;;5053894;28;20017;-27
2021/01/10 08:01:07;;;;;;;24.60;18.50;;;15.80;99.90;;;;;;5053795;28;20440;-28
2021/01/10 08:03:32;;;;;;;24.80;20.25;;;15.70;99.90;;;;;;5053660;28;20786;-27
2021/01/10 08:06:06;;;;;;;25.77;20.17;;;15.80;99.90;;;;;;5054088;28;20032;-27
2021/01/10 08:08:39;;;;;;;23.73;19.42;;;15.80;99.90;;;;;;5053353;28;20132;-27
2021/01/10 08:11:05;;;;;;;23.92;21.33;;;15.80;99.90;;;;;;5053066;28;20094;-27
2021/01/10 08:13:36;;;;;;;33.35;25.48;;;15.90;99.90;;;;;;5052701;28;20128;-27
2021/01/10 08:16:08;;;;;;;27.80;21.05;;;15.90;99.90;;;;;;5053586;28;20490;-27
2021/01/10 08:18:44;;;;;;;127.10;100.30;;;16.00;99.90;;;;;;5053485;28;20033;-27
2021/01/10 08:21:12;;;;;;;337.77;263.60;;;16.00;99.90;;;;;;5053477;28;20064;-27
2021/01/10 08:23:39;;;;;;;189.95;151.60;;;16.00;99.90;;;;;;5053217;28;20580;-26
2021/01/10 08:26:12;;;;;;;242.65;195.18;;;16.00;99.90;;;;;;5036599;28;20048;-27
2021/01/10 08:28:44;;;;;;;243.27;198.43;;;16.00;99.90;;;;;;5073703;28;20029;-28
2021/01/10 08:31:19;;;;;;;244.30;199.15;;;16.00;99.90;;;;;;5073581;28;20048;-27
2021/01/10 08:33:46;;;;;;;224.85;184.90;;;16.00;99.90;;;;;;5075536;28;20117;-27
2021/01/10 08:36:12;;;;;;;205.82;169.07;;;16.00;99.90;;;;;;5075200;28;20539;-27
2021/01/10 08:38:45;;;;;;;350.00;291.73;;;16.00;99.90;;;;;;5075085;28;20040;-27
2021/01/10 08:41:11;;;;;;;246.15;199.07;;;16.10;99.90;;;;;;5075103;28;20029;-26
2021/01/10 08:43:55;;;;;;;254.13;216.35;;;16.20;99.90;;;;;;5074630;28;20027;-27
2021/01/10 08:46:21;;;;;;;245.25;204.02;;;16.20;99.90;;;;;;5074795;28;20077;-27
2021/01/10 08:48:47;;;;;;;239.10;198.82;;;16.20;99.90;;;;;;5073419;28;20039;-27
2021/01/10 08:51:38;;;;;;;227.25;190.25;;;16.30;99.90;;;;;;5075021;28;20095;-27
2021/01/10 08:54:21;;;;;;;218.30;184.05;;;16.30;99.90;;;;;;5074726;28;20028;-27
2021/01/10 08:56:52;;;;;;;220.45;181.93;;;16.30;99.90;;;;;;5075243;28;20024;-28
2021/01/10 08:59:19;;;;;;;218.55;186.63;;;16.40;99.90;;;;;;5074593;28;20479;-28
2021/01/10 09:01:45;;;;;;;202.02;173.57;;;16.40;99.90;;;;;;5074378;28;20154;-28
2021/01/10 09:04:13;;;;;;;208.38;174.90;;;16.40;99.90;;;;;;5074753;28;20032;-28
2021/01/10 09:06:58;;;;;;;;;;;16.40;99.90;;;;;;5073714;28;20082;-27
2021/01/10 09:09:52;;;;;;;190.73;157.18;;;16.40;99.90;;;;;;5074627;28;19905;-31
2021/01/10 09:12:38;;;;;;;190.48;157.27;;;16.50;99.90;;;;;;5073641;28;20024;-26
2021/01/10 09:15:21;;;;;;;184.43;150.98;;;16.50;99.90;;;;;;5064621;28;20028;-27
2021/01/10 09:18:13;;;;;;;177.02;148.18;;;16.50;99.90;;;;;;5074513;28;20032;-28
2021/01/10 09:20:49;;;;;;;175.18;144.98;;;16.60;99.90;;;;;;5067870;28;20064;-24
2021/01/10 09:23:16;;;;;;;174.63;146.82;;;16.60;99.90;;;;;;5073499;28;20413;-24
2021/01/10 09:25:42;;;;;;;164.93;137.48;;;16.60;99.90;;;;;;5073192;28;20433;-25
2021/01/10 09:28:13;;;;;;;150.10;128.13;;;16.70;99.90;;;;;;5078495;28;20064;-25
2021/01/10 09:30:41;;;;;;;161.95;135.93;;;16.60;99.90;;;;;;5071671;28;20048;-25
2021/01/10 09:33:08;;;;;;;160.35;135.63;;;16.60;99.90;;;;;;5073696;28;20055;-24
2021/01/10 09:35:37;;;;;;;160.02;133.23;;;16.60;99.90;;;;;;5072732;28;20030;-27
2021/01/10 09:38:17;;;;;;;164.07;138.23;;;16.60;99.90;;;;;;5071803;28;20102;-26
2021/01/10 09:41:14;;;;;;;170.85;134.77;;;16.50;99.90;;;;;;5074134;28;20112;-27
2021/01/10 09:43:46;;;;;;;158.65;126.97;;;16.50;99.90;;;;;;5072943;28;20024;-26
2021/01/10 09:46:37;;;;;;;152.43;125.20;;;16.60;99.90;;;;;;5071666;28;20032;-26
2021/01/10 09:49:14;;;;;;;161.80;133.80;;;16.50;99.90;;;;;;5073307;28;20028;-26
2021/01/10 09:51:42;;;;;;;177.52;143.07;;;16.60;99.90;;;;;;5073923;28;20437;-26
2021/01/10 09:54:24;;;;;;;;;;;16.70;99.90;;;;;;5073446;28;20029;-26
2021/01/10 09:57:03;;;;;;;178.48;141.98;;;16.70;99.90;;;;;;5071428;28;19955;-26
2021/01/10 09:59:35;;;;;;;166.20;136.60;;;16.70;99.90;;;;;;5061583;28;20017;-26
2021/01/10 10:02:11;;;;;;;166.30;136.32;;;16.60;99.90;;;;;;5072823;28;20102;-26
2021/01/10 10:04:37;;;;;;;165.20;132.63;;;16.60;99.90;;;;;;5072998;28;20032;-26
2021/01/10 10:07:04;;;;;;;157.32;128.18;;;16.60;99.90;;;;;;5073065;28;20025;-24
2021/01/10 10:09:50;;;;;;;155.65;127.10;;;16.50;99.90;;;;;;5072590;28;20025;-24
2021/01/10 10:12:16;;;;;;;153.55;126.20;;;16.50;99.90;;;;;;5072123;28;20090;-24
2021/01/10 10:15:07;;;;;;;143.88;118.10;;;16.50;99.90;;;;;;5073222;28;20024;-24
2021/01/10 10:17:37;;;;;;;149.20;119.45;;;16.50;99.90;;;;;;5072747;28;20036;-24
2021/01/10 10:20:08;;;;;;;143.02;114.95;;;16.50;99.90;;;;;;5071933;28;20051;-24
2021/01/10 10:22:36;;;;;;;135.88;108.43;;;16.40;99.90;;;;;;5072973;28;20021;-23
2021/01/10 10:25:05;;;;;;;114.45;92.15;;;16.40;99.90;;;;;;5073180;28;20532;-23
2021/01/10 10:27:32;;;;;;;112.47;92.13;;;16.40;99.90;;;;;;5072413;28;20025;-25
2021/01/10 10:29:59;;;;;;;105.30;82.50;;;16.40;99.90;;;;;;5072687;28;20166;-25
2021/01/10 10:32:25;;;;;;;91.45;71.60;;;16.40;99.90;;;;;;5071622;28;20029;-25
2021/01/10 10:34:53;;;;;;;88.80;68.82;;;16.40;99.90;;;;;;5072822;28;20098;-25
2021/01/10 10:37:20;;;;;;;81.97;66.20;;;16.40;99.90;;;;;;5072876;28;20099;-25
2021/01/10 10:39:46;;;;;;;74.10;58.17;;;16.50;99.90;;;;;;5068170;28;20024;-25
2021/01/10 10:42:15;;;;;;;69.88;52.05;;;16.40;99.90;;;;;;5052164;28;20124;-25
2021/01/10 10:44:41;;;;;;;63.17;48.70;;;16.40;99.90;;;;;;5064190;28;20068;-25
2021/01/10 10:47:11;;;;;;;38.65;29.25;;;16.40;99.90;;;;;;5068503;28;20021;-25
2021/01/10 10:49:37;;;;;;;47.70;35.40;;;16.30;99.90;;;;;;5070440;28;20416;-25
2021/01/10 10:52:07;;;;;;;22.48;17.85;;;16.30;99.90;;;;;;5075048;28;20074;-25
2021/01/10 10:54:33;;;;;;;21.70;17.50;;;16.30;99.90;;;;;;5073908;28;20090;-25
2021/01/10 10:56:59;;;;;;;20.90;14.63;;;16.30;99.90;;;;;;5075497;28;20016;-25
2021/01/10 10:59:25;;;;;;;45.90;28.02;;;16.30;99.90;;;;;;5070268;28;20024;-23
2021/01/10 11:01:51;;;;;;;66.78;47.22;;;16.40;99.90;;;;;;5066984;28;20478;-23
2021/01/10 11:04:17;;;;;;;79.20;53.97;;;16.30;99.90;;;;;;5067369;28;20074;-24
2021/01/10 11:06:43;;;;;;;81.82;58.00;;;16.30;99.90;;;;;;5072559;28;20032;-23
2021/01/10 11:09:10;;;;;;;80.78;57.58;;;16.30;99.90;;;;;;5071171;28;20024;-24
2021/01/10 11:11:41;;;;;;;78.90;57.45;;;16.30;99.90;;;;;;5074243;28;20025;-24
2021/01/10 11:14:08;;;;;;;72.05;52.72;;;16.30;99.90;;;;;;5056325;28;20112;-24
2021/01/10 11:16:36;;;;;;;71.25;51.92;;;16.20;99.90;;;;;;5058137;28;20029;-24
2021/01/10 11:19:06;;;;;;;58.35;42.40;;;16.20;99.90;;;;;;5070817;28;20021;-24
2021/01/10 11:21:35;;;;;;;59.38;44.60;;;16.30;99.90;;;;;;5061279;28;20023;-26
2021/01/10 11:24:03;;;;;;;60.22;43.90;;;16.20;99.90;;;;;;5064950;28;20028;-24
2021/01/10 11:26:29;;;;;;;81.68;60.25;;;16.30;99.90;;;;;;5074832;28;20028;-24
2021/01/10 11:28:56;;;;;;;81.28;59.90;;;16.20;99.90;;;;;;5072634;28;20032;-26
2021/01/10 11:31:24;;;;;;;82.63;61.83;;;16.30;99.90;;;;;;5061783;28;20134;-26
2021/01/10 11:33:50;;;;;;;76.53;58.08;;;16.20;99.90;;;;;;5057837;28;20021;-25
2021/01/10 11:36:16;;;;;;;79.18;58.53;;;16.20;99.90;;;;;;5062666;28;20070;-26
2021/01/10 11:38:42;;;;;;;81.20;57.67;;;16.20;99.90;;;;;;5061677;28;20017;-24
2021/01/10 11:41:11;;;;;;;71.72;55.80;;;16.30;99.90;;;;;;5065896;28;20031;-25
2021/01/10 11:43:38;;;;;;;68.68;50.97;;;16.20;99.90;;;;;;5067380;28;20056;-26
2021/01/10 11:46:05;;;;;;;67.15;51.03;;;16.30;99.90;;;;;;5075046;28;20024;-26
2021/01/10 11:48:32;;;;;;;69.03;52.30;;;16.20;99.90;;;;;;5068810;28;20031;-25
2021/01/10 11:50:58;;;;;;;66.50;49.97;;;16.20;99.90;;;;;;5059290;28;20021;-24
2021/01/10 11:53:24;;;;;;;62.97;47.40;;;16.30;99.90;;;;;;5067739;28;20016;-25
2021/01/10 11:55:50;;;;;;;65.05;48.10;;;16.30;99.90;;;;;;5061922;28;20029;-25
2021/01/10 11:58:16;;;;;;;73.20;53.60;;;16.30;99.90;;;;;;5065005;28;20027;-25
2021/01/10 12:00:42;;;;;;;83.13;60.22;;;16.30;99.90;;;;;;5066746;28;20086;-25
2021/01/10 12:03:08;;;;;;;78.25;58.55;;;16.30;99.90;;;;;;5074449;28;20078;-25
2021/01/10 12:05:35;;;;;;;77.30;59.65;;;16.30;99.90;;;;;;5074493;28;20028;-25
2021/01/10 12:08:01;;;;;;;75.07;56.42;;;16.30;99.90;;;;;;5071983;28;20039;-25
2021/01/10 12:10:27;;;;;;;73.70;55.92;;;16.30;99.90;;;;;;5073456;28;20029;-25
2021/01/10 12:12:54;;;;;;;67.05;50.13;;;16.30;99.90;;;;;;5064192;28;20021;-25
2021/01/10 12:15:22;;;;;;;66.05;48.28;;;16.30;99.90;;;;;;5055232;28;20422;-26
2021/01/10 12:17:47;;;;;;;64.32;47.70;;;16.30;99.90;;;;;;5074681;28;20056;-26
2021/01/10 12:20:14;;;;;;;66.38;49.90;;;16.30;99.90;;;;;;5074720;28;20052;-27
2021/01/10 12:22:40;;;;;;;74.95;57.78;;;16.30;99.90;;;;;;5074721;28;20024;-25
2021/01/10 12:25:07;;;;;;;79.95;62.20;;;16.30;99.90;;;;;;5069353;28;20021;-27
2021/01/10 12:27:33;;;;;;;93.68;73.80;;;16.40;99.90;;;;;;5072823;28;20036;-25
2021/01/10 12:29:59;;;;;;;88.53;69.25;;;16.40;99.90;;;;;;5074375;28;20057;-25
2021/01/10 12:32:28;;;;;;;85.10;65.68;;;16.50;99.90;;;;;;5072982;28;20059;-26
2021/01/10 12:34:55;;;;;;;96.65;64.10;;;16.50;99.90;;;;;;5072895;28;20021;-25
2021/01/10 12:37:21;;;;;;;80.05;63.28;;;16.60;99.90;;;;;;5074893;28;20021;-26
2021/01/10 12:39:47;;;;;;;80.95;62.10;;;16.70;99.90;;;;;;5072344;28;20012;-28